sensor_id;sensor_type;location;lat;lon;timestamp;pressure;altitude;pressure_sealevel;temperature;humidity
56040;BME280;43937;41.366;2.072;2022-10-16T00:02:00;100892.13;;;22.04;100.00
56040;BME280;43937;41.366;2.072;2022-10-16T00:04:25;100897.97;;;21.84;100.00
56040;BME280;43937;41.366;2.072;2022-10-16T00:06:51;100899.50;;;21.68;100.00
56040;BME280;43937;41.366;2.072;2022-10-16T00:09:16;100890.63;;;21.47;100.00
56040;BME280;43937;41.366;2.072;2022-10-16T00:11:42;100898.28;;;21.34;100.00
56040;BME280;43937;41.366;2.072;2022-10-16T00:14:10;100887.97;;;21.22;100.00
56040;BME280;43937;41.366;2.072;2022-10-16T00:16:36;100881.34;;;21.23;100.00
56040;BME280;43937;41.366;2.072;2022-10-16T00:19:03;100893.13;;;21.37;100.00
56040;BME280;43937;41.366;2.072;2022-10-16T00:21:30;100891.09;;;21.44;100.00
56040;BME280;43937;41.366;2.072;2022-10-16T00:24:02;100883.63;;;21.45;100.00
56040;BME280;43937;41.366;2.072;2022-10-16T00:26:30;100880.31;;;21.55;100.00
56040;BME280;43937;41.366;2.072;2022-10-16T00:28:56;100882.47;;;21.53;100.00
56040;BME280;43937;41.366;2.072;2022-10-16T00:31:23;100882.88;;;21.68;100.00
56040;BME280;43937;41.366;2.072;2022-10-16T00:33:49;100888.09;;;21.76;100.00
56040;BME280;43937;41.366;2.072;2022-10-16T00:36:18;100892.69;;;21.82;99.87
56040;BME280;43937;41.366;2.072;2022-10-16T00:38:43;100882.44;;;21.83;99.72
56040;BME280;43937;41.366;2.072;2022-10-16T00:41:16;100868.22;;;21.79;99.94
56040;BME280;43937;41.366;2.072;2022-10-16T00:43:47;100878.22;;;21.80;99.42
56040;BME280;43937;41.366;2.072;2022-10-16T00:46:28;100878.03;;;21.63;99.59
56040;BME280;43937;41.366;2.072;2022-10-16T00:51:41;100866.81;;;21.46;100.00
56040;BME280;43937;41.366;2.072;2022-10-16T00:54:21;100867.97;;;21.39;100.00
56040;BME280;43937;41.366;2.072;2022-10-16T00:56:47;100840.88;;;21.11;100.00
56040;BME280;43937;41.366;2.072;2022-10-16T00:59:22;100836.38;;;20.98;100.00
56040;BME280;43937;41.366;2.072;2022-10-16T01:01:50;100848.56;;;20.90;100.00
56040;BME280;43937;41.366;2.072;2022-10-16T01:04:15;100854.56;;;20.87;100.00
56040;BME280;43937;41.366;2.072;2022-10-16T01:17:37;100861.16;;;20.49;100.00
56040;BME280;43937;41.366;2.072;2022-10-16T01:20:33;100844.94;;;20.34;100.00
56040;BME280;43937;41.366;2.072;2022-10-16T01:26:20;100839.78;;;20.20;100.00
56040;BME280;43937;41.366;2.072;2022-10-16T01:28:57;100841.47;;;20.21;100.00
56040;BME280;43937;41.366;2.072;2022-10-16T01:31:29;100810.59;;;20.05;100.00
56040;BME280;43937;41.366;2.072;2022-10-16T01:34:02;100824.66;;;20.22;100.00
56040;BME280;43937;41.366;2.072;2022-10-16T01:36:37;100840.56;;;20.27;100.00
56040;BME280;43937;41.366;2.072;2022-10-16T01:39:06;100838.78;;;20.32;100.00
56040;BME280;43937;41.366;2.072;2022-10-16T01:41:41;100831.97;;;20.35;100.00
56040;BME280;43937;41.366;2.072;2022-10-16T01:44:15;100837.50;;;20.35;100.00
56040;BME280;43937;41.366;2.072;2022-10-16T01:46:43;100846.41;;;20.37;100.00
56040;BME280;43937;41.366;2.072;2022-10-16T01:49:11;100850.09;;;20.31;100.00
56040;BME280;43937;41.366;2.072;2022-10-16T01:51:38;100839.28;;;20.04;100.00
56040;BME280;43937;41.366;2.072;2022-10-16T01:54:05;100873.78;;;20.20;100.00
56040;BME280;43937;41.366;2.072;2022-10-16T01:56:34;100864.03;;;20.18;100.00
56040;BME280;43937;41.366;2.072;2022-10-16T01:59:18;100835.69;;;20.04;100.00
56040;BME280;43937;41.366;2.072;2022-10-16T02:01:51;100860.25;;;20.12;100.00
56040;BME280;43937;41.366;2.072;2022-10-16T02:05:34;100868.50;;;20.19;100.00
56040;BME280;43937;41.366;2.072;2022-10-16T02:08:03;100863.25;;;20.10;100.00
56040;BME280;43937;41.366;2.072;2022-10-16T02:10:29;100886.50;;;20.28;100.00
56040;BME280;43937;41.366;2.072;2022-10-16T02:13:50;100884.31;;;20.30;100.00
56040;BME280;43937;41.366;2.072;2022-10-16T02:16:11;100885.19;;;20.30;100.00
56040;BME280;43937;41.366;2.072;2022-10-16T02:20:03;100889.25;;;20.28;100.00
56040;BME280;43937;41.366;2.072;2022-10-16T02:22:39;100878.41;;;20.26;100.00
56040;BME280;43937;41.366;2.072;2022-10-16T02:25:13;100885.03;;;20.25;100.00
56040;BME280;43937;41.366;2.072;2022-10-16T02:30:43;100871.91;;;20.39;100.00
56040;BME280;43937;41.366;2.072;2022-10-16T02:33:11;100867.91;;;20.35;100.00
56040;BME280;43937;41.366;2.072;2022-10-16T02:35:41;100860.22;;;20.19;100.00
56040;BME280;43937;41.366;2.072;2022-10-16T02:38:09;100852.94;;;20.24;100.00
56040;BME280;43937;41.366;2.072;2022-10-16T02:40:35;100846.94;;;20.27;100.00
56040;BME280;43937;41.366;2.072;2022-10-16T02:43:03;100841.34;;;20.34;100.00
56040;BME280;43937;41.366;2.072;2022-10-16T02:45:29;100844.88;;;20.41;100.00
56040;BME280;43937;41.366;2.072;2022-10-16T02:47:54;100845.03;;;20.46;100.00
56040;BME280;43937;41.366;2.072;2022-10-16T02:50:20;100854.38;;;20.45;100.00
56040;BME280;43937;41.366;2.072;2022-10-16T02:52:46;100854.38;;;20.45;100.00
56040;BME280;43937;41.366;2.072;2022-10-16T02:55:11;100846.50;;;20.49;100.00
56040;BME280;43937;41.366;2.072;2022-10-16T02:57:37;100859.00;;;20.51;100.00
56040;BME280;43937;41.366;2.072;2022-10-16T03:00:04;100852.63;;;20.51;100.00
56040;BME280;43937;41.366;2.072;2022-10-16T03:02:30;100847.50;;;20.54;100.00
56040;BME280;43937;41.366;2.072;2022-10-16T03:04:55;100842.59;;;20.56;100.00
56040;BME280;43937;41.366;2.072;2022-10-16T03:07:21;100841.81;;;20.49;100.00
56040;BME280;43937;41.366;2.072;2022-10-16T03:09:46;100853.09;;;20.48;100.00
56040;BME280;43937;41.366;2.072;2022-10-16T03:12:11;100843.75;;;20.49;100.00
56040;BME280;43937;41.366;2.072;2022-10-16T03:14:37;100829.59;;;20.39;100.00
56040;BME280;43937;41.366;2.072;2022-10-16T03:17:02;100841.72;;;20.38;100.00
56040;BME280;43937;41.366;2.072;2022-10-16T03:19:28;100823.59;;;20.23;100.00
56040;BME280;43937;41.366;2.072;2022-10-16T03:21:53;100838.88;;;20.26;100.00
56040;BME280;43937;41.366;2.072;2022-10-16T03:24:54;100842.84;;;20.30;100.00
56040;BME280;43937;41.366;2.072;2022-10-16T03:27:20;100840.16;;;20.23;100.00
56040;BME280;43937;41.366;2.072;2022-10-16T03:29:45;100842.34;;;20.21;100.00
56040;BME280;43937;41.366;2.072;2022-10-16T03:32:10;100841.00;;;20.24;100.00
56040;BME280;43937;41.366;2.072;2022-10-16T03:34:36;100835.56;;;20.17;100.00
56040;BME280;43937;41.366;2.072;2022-10-16T03:37:01;100831.78;;;20.11;100.00
56040;BME280;43937;41.366;2.072;2022-10-16T03:39:27;100839.41;;;20.16;100.00
56040;BME280;43937;41.366;2.072;2022-10-16T03:41:52;100835.78;;;20.16;100.00
56040;BME280;43937;41.366;2.072;2022-10-16T03:44:17;100838.38;;;20.10;100.00
56040;BME280;43937;41.366;2.072;2022-10-16T03:46:43;100818.75;;;19.94;100.00
56040;BME280;43937;41.366;2.072;2022-10-16T03:49:08;100833.38;;;20.01;100.00
56040;BME280;43937;41.366;2.072;2022-10-16T03:51:34;100840.19;;;19.98;100.00
56040;BME280;43937;41.366;2.072;2022-10-16T03:53:59;100837.25;;;19.93;100.00
56040;BME280;43937;41.366;2.072;2022-10-16T03:56:24;100838.97;;;19.94;100.00
56040;BME280;43937;41.366;2.072;2022-10-16T03:58:50;100843.94;;;19.85;100.00
56040;BME280;43937;41.366;2.072;2022-10-16T04:01:15;100859.22;;;19.88;100.00
56040;BME280;43937;41.366;2.072;2022-10-16T04:03:41;100852.44;;;19.84;100.00
56040;BME280;43937;41.366;2.072;2022-10-16T04:06:06;100855.00;;;19.79;100.00
56040;BME280;43937;41.366;2.072;2022-10-16T04:08:32;100862.88;;;19.82;100.00
56040;BME280;43937;41.366;2.072;2022-10-16T04:11:00;100863.72;;;19.82;100.00
56040;BME280;43937;41.366;2.072;2022-10-16T04:13:26;100866.69;;;19.81;100.00
56040;BME280;43937;41.366;2.072;2022-10-16T04:15:51;100870.81;;;19.72;100.00
56040;BME280;43937;41.366;2.072;2022-10-16T04:18:17;100875.31;;;19.59;100.00
56040;BME280;43937;41.366;2.072;2022-10-16T04:20:42;100873.84;;;19.57;100.00
56040;BME280;43937;41.366;2.072;2022-10-16T04:23:07;100873.88;;;19.50;100.00
56040;BME280;43937;41.366;2.072;2022-10-16T04:25:33;100878.00;;;19.41;100.00
56040;BME280;43937;41.366;2.072;2022-10-16T04:27:58;100873.09;;;19.43;100.00
56040;BME280;43937;41.366;2.072;2022-10-16T04:30:24;100884.41;;;19.35;100.00
56040;BME280;43937;41.366;2.072;2022-10-16T04:32:51;100878.69;;;19.30;100.00
56040;BME280;43937;41.366;2.072;2022-10-16T04:35:18;100884.19;;;19.30;100.00
56040;BME280;43937;41.366;2.072;2022-10-16T04:37:43;100885.47;;;19.34;100.00
56040;BME280;43937;41.366;2.072;2022-10-16T04:40:09;100883.31;;;19.36;100.00
56040;BME280;43937;41.366;2.072;2022-10-16T04:42:34;100883.72;;;19.39;100.00
56040;BME280;43937;41.366;2.072;2022-10-16T04:45:00;100879.94;;;19.34;100.00
56040;BME280;43937;41.366;2.072;2022-10-16T04:47:25;100884.84;;;19.32;100.00
56040;BME280;43937;41.366;2.072;2022-10-16T04:49:50;100894.34;;;19.36;100.00
56040;BME280;43937;41.366;2.072;2022-10-16T04:52:16;100889.72;;;19.30;100.00
56040;BME280;43937;41.366;2.072;2022-10-16T04:54:42;100895.69;;;19.27;100.00
56040;BME280;43937;41.366;2.072;2022-10-16T04:57:09;100886.34;;;19.28;100.00
56040;BME280;43937;41.366;2.072;2022-10-16T04:59:35;100894.63;;;19.28;100.00
56040;BME280;43937;41.366;2.072;2022-10-16T05:02:01;100895.69;;;19.27;100.00
56040;BME280;43937;41.366;2.072;2022-10-16T05:04:26;100892.88;;;19.33;100.00
56040;BME280;43937;41.366;2.072;2022-10-16T05:06:51;100888.69;;;19.24;100.00
56040;BME280;43937;41.366;2.072;2022-10-16T05:09:17;100894.00;;;19.26;100.00
56040;BME280;43937;41.366;2.072;2022-10-16T05:11:54;100888.69;;;19.24;100.00
56040;BME280;43937;41.366;2.072;2022-10-16T05:14:19;100907.56;;;19.34;100.00
56040;BME280;43937;41.366;2.072;2022-10-16T05:16:45;100897.19;;;19.22;100.00
56040;BME280;43937;41.366;2.072;2022-10-16T05:20:19;100915.63;;;19.29;100.00
56040;BME280;43937;41.366;2.072;2022-10-16T05:22:45;100912.03;;;19.28;100.00
56040;BME280;43937;41.366;2.072;2022-10-16T05:25:10;100918.44;;;19.22;100.00
56040;BME280;43937;41.366;2.072;2022-10-16T05:27:36;100897.91;;;19.05;100.00
56040;BME280;43937;41.366;2.072;2022-10-16T05:30:01;100911.91;;;19.03;100.00
56040;BME280;43937;41.366;2.072;2022-10-16T05:32:27;100916.59;;;19.09;100.00
56040;BME280;43937;41.366;2.072;2022-10-16T05:34:52;100923.34;;;19.13;100.00
56040;BME280;43937;41.366;2.072;2022-10-16T05:37:18;100931.63;;;19.13;100.00
56040;BME280;43937;41.366;2.072;2022-10-16T05:39:43;100947.53;;;19.11;100.00
56040;BME280;43937;41.366;2.072;2022-10-16T05:42:08;100950.94;;;19.13;100.00
56040;BME280;43937;41.366;2.072;2022-10-16T05:45:18;100945.03;;;19.10;100.00
56040;BME280;43937;41.366;2.072;2022-10-16T05:48:29;100893.75;;;18.89;100.00
56040;BME280;43937;41.366;2.072;2022-10-16T05:51:03;100936.72;;;19.16;100.00
56040;BME280;43937;41.366;2.072;2022-10-16T05:53:30;100935.19;;;19.20;100.00
56040;BME280;43937;41.366;2.072;2022-10-16T05:55:56;100934.16;;;19.21;100.00
56040;BME280;43937;41.366;2.072;2022-10-16T05:58:22;100928.63;;;19.21;100.00
56040;BME280;43937;41.366;2.072;2022-10-16T06:00:58;100942.41;;;19.28;100.00
56040;BME280;43937;41.366;2.072;2022-10-16T06:03:24;100911.47;;;19.06;100.00
56040;BME280;43937;41.366;2.072;2022-10-16T06:05:50;100945.31;;;19.33;100.00
56040;BME280;43937;41.366;2.072;2022-10-16T06:08:44;100950.63;;;19.35;100.00
56040;BME280;43937;41.366;2.072;2022-10-16T06:11:16;100941.97;;;19.31;100.00
56040;BME280;43937;41.366;2.072;2022-10-16T06:14:08;100943.44;;;19.27;100.00
56040;BME280;43937;41.366;2.072;2022-10-16T06:16:35;100945.78;;;19.23;100.00
56040;BME280;43937;41.366;2.072;2022-10-16T06:19:02;100942.44;;;19.21;100.00
56040;BME280;43937;41.366;2.072;2022-10-16T06:21:29;100935.59;;;19.24;100.00
56040;BME280;43937;41.366;2.072;2022-10-16T06:23:55;100946.00;;;19.29;100.00
56040;BME280;43937;41.366;2.072;2022-10-16T06:26:23;100946.34;;;19.45;100.00
56040;BME280;43937;41.366;2.072;2022-10-16T06:28:49;100959.69;;;19.55;100.00
56040;BME280;43937;41.366;2.072;2022-10-16T06:31:16;100963.66;;;19.66;100.00
56040;BME280;43937;41.366;2.072;2022-10-16T06:33:42;100957.22;;;19.79;100.00
56040;BME280;43937;41.366;2.072;2022-10-16T06:36:15;100951.44;;;19.87;100.00
56040;BME280;43937;41.366;2.072;2022-10-16T06:38:42;100947.56;;;19.95;100.00
56040;BME280;43937;41.366;2.072;2022-10-16T06:41:13;100945.00;;;19.93;100.00
56040;BME280;43937;41.366;2.072;2022-10-16T06:43:39;100968.59;;;20.21;100.00
56040;BME280;43937;41.366;2.072;2022-10-16T06:46:06;100969.13;;;20.36;100.00
56040;BME280;43937;41.366;2.072;2022-10-16T06:48:33;100973.97;;;20.41;100.00
56040;BME280;43937;41.366;2.072;2022-10-16T06:52:44;100909.25;;;20.23;100.00
56040;BME280;43937;41.366;2.072;2022-10-16T06:55:10;100973.78;;;20.67;100.00
56040;BME280;43937;41.366;2.072;2022-10-16T06:57:35;100977.44;;;20.61;100.00
56040;BME280;43937;41.366;2.072;2022-10-16T07:02:01;100988.53;;;20.79;100.00
56040;BME280;43937;41.366;2.072;2022-10-16T07:04:26;100991.97;;;20.75;100.00
56040;BME280;43937;41.366;2.072;2022-10-16T07:07:31;100999.72;;;20.66;100.00
56040;BME280;43937;41.366;2.072;2022-10-16T07:09:56;100989.28;;;20.68;100.00
56040;BME280;43937;41.366;2.072;2022-10-16T07:12:22;101003.50;;;20.72;100.00
56040;BME280;43937;41.366;2.072;2022-10-16T07:14:47;101001.28;;;20.80;100.00
56040;BME280;43937;41.366;2.072;2022-10-16T07:17:13;101005.63;;;20.95;99.74
56040;BME280;43937;41.366;2.072;2022-10-16T07:19:38;101009.69;;;20.92;100.00
56040;BME280;43937;41.366;2.072;2022-10-16T07:22:03;101016.31;;;21.10;99.51
56040;BME280;43937;41.366;2.072;2022-10-16T07:24:29;101007.34;;;21.51;96.29
56040;BME280;43937;41.366;2.072;2022-10-16T07:29:00;101010.38;;;22.10;90.98
56040;BME280;43937;41.366;2.072;2022-10-16T07:31:26;101002.88;;;23.35;83.90
56040;BME280;43937;41.366;2.072;2022-10-16T07:33:52;101027.00;;;23.46;83.50
56040;BME280;43937;41.366;2.072;2022-10-16T07:36:18;101017.63;;;23.12;83.59
56040;BME280;43937;41.366;2.072;2022-10-16T07:38:45;101035.25;;;22.82;86.46
56040;BME280;43937;41.366;2.072;2022-10-16T07:41:12;101038.97;;;22.64;86.87
56040;BME280;43937;41.366;2.072;2022-10-16T07:45:23;101013.72;;;22.00;88.58
56040;BME280;43937;41.366;2.072;2022-10-16T07:47:48;101045.50;;;21.98;90.18
56040;BME280;43937;41.366;2.072;2022-10-16T07:50:14;101056.91;;;21.89;90.75
56040;BME280;43937;41.366;2.072;2022-10-16T07:54:35;101052.94;;;21.85;90.47
56040;BME280;43937;41.366;2.072;2022-10-16T07:57:02;101064.03;;;21.85;90.81
56040;BME280;43937;41.366;2.072;2022-10-16T08:00:24;101070.59;;;22.86;86.60
56040;BME280;43937;41.366;2.072;2022-10-16T08:02:50;101061.22;;;22.99;83.88
56040;BME280;43937;41.366;2.072;2022-10-16T08:05:15;101066.28;;;23.02;84.51
56040;BME280;43937;41.366;2.072;2022-10-16T08:08:26;101065.03;;;22.86;85.84
56040;BME280;43937;41.366;2.072;2022-10-16T08:10:52;101066.59;;;22.71;86.42
56040;BME280;43937;41.366;2.072;2022-10-16T08:13:18;101042.44;;;23.53;82.22
56040;BME280;43937;41.366;2.072;2022-10-16T08:15:44;101073.75;;;23.49;82.48
56040;BME280;43937;41.366;2.072;2022-10-16T08:19:24;101082.44;;;23.05;84.15
56040;BME280;43937;41.366;2.072;2022-10-16T08:21:50;101077.03;;;23.11;83.01
56040;BME280;43937;41.366;2.072;2022-10-16T08:25:28;101078.00;;;23.04;82.41
56040;BME280;43937;41.366;2.072;2022-10-16T08:27:54;101093.41;;;22.89;84.47
56040;BME280;43937;41.366;2.072;2022-10-16T08:30:21;101094.00;;;22.67;85.61
56040;BME280;43937;41.366;2.072;2022-10-16T08:32:47;101085.78;;;22.60;85.68
56040;BME280;43937;41.366;2.072;2022-10-16T08:35:13;101106.50;;;22.58;85.57
56040;BME280;43937;41.366;2.072;2022-10-16T08:37:40;101104.47;;;22.65;86.03
56040;BME280;43937;41.366;2.072;2022-10-16T08:40:13;101077.22;;;22.74;84.93
56040;BME280;43937;41.366;2.072;2022-10-16T08:48:14;101102.50;;;23.43;82.85
56040;BME280;43937;41.366;2.072;2022-10-16T08:50:42;101100.53;;;23.79;80.81
56040;BME280;43937;41.366;2.072;2022-10-16T08:53:14;101072.50;;;24.09;78.81
56040;BME280;43937;41.366;2.072;2022-10-16T08:55:43;101091.44;;;24.40;77.98
56040;BME280;43937;41.366;2.072;2022-10-16T08:58:16;101099.09;;;24.45;78.36
56040;BME280;43937;41.366;2.072;2022-10-16T09:00:44;101101.66;;;24.63;77.17
56040;BME280;43937;41.366;2.072;2022-10-16T09:09:29;101118.16;;;25.54;74.55
56040;BME280;43937;41.366;2.072;2022-10-16T09:12:12;101126.78;;;25.75;73.79
56040;BME280;43937;41.366;2.072;2022-10-16T09:15:07;101122.06;;;26.19;71.97
56040;BME280;43937;41.366;2.072;2022-10-16T09:19:46;101120.44;;;25.79;72.99
56040;BME280;43937;41.366;2.072;2022-10-16T09:23:30;101118.41;;;25.75;72.98
56040;BME280;43937;41.366;2.072;2022-10-16T09:25:59;101125.69;;;26.42;70.66
56040;BME280;43937;41.366;2.072;2022-10-16T09:28:25;101132.84;;;26.33;70.97
56040;BME280;43937;41.366;2.072;2022-10-16T09:30:50;101137.91;;;26.36;72.27
56040;BME280;43937;41.366;2.072;2022-10-16T09:33:23;101137.16;;;25.96;72.93
56040;BME280;43937;41.366;2.072;2022-10-16T09:35:56;101110.94;;;25.58;73.65
56040;BME280;43937;41.366;2.072;2022-10-16T09:38:30;101137.09;;;25.74;73.11
56040;BME280;43937;41.366;2.072;2022-10-16T09:41:21;101114.28;;;26.21;72.04
56040;BME280;43937;41.366;2.072;2022-10-16T09:44:26;101137.50;;;27.08;68.90
56040;BME280;43937;41.366;2.072;2022-10-16T09:48:49;101114.94;;;27.15;64.76
56040;BME280;43937;41.366;2.072;2022-10-16T09:52:36;101137.72;;;28.49;60.69
56040;BME280;43937;41.366;2.072;2022-10-16T09:55:13;101144.75;;;28.83;58.63
56040;BME280;43937;41.366;2.072;2022-10-16T09:57:53;101155.09;;;28.67;59.54
56040;BME280;43937;41.366;2.072;2022-10-16T10:00:19;101151.78;;;28.75;60.07
56040;BME280;43937;41.366;2.072;2022-10-16T10:02:45;101130.22;;;29.21;57.52
56040;BME280;43937;41.366;2.072;2022-10-16T10:09:26;101146.41;;;28.68;58.19
56040;BME280;43937;41.366;2.072;2022-10-16T10:12:02;101139.22;;;28.04;61.03
56040;BME280;43937;41.366;2.072;2022-10-16T10:14:32;101141.09;;;27.83;62.31
56040;BME280;43937;41.366;2.072;2022-10-16T10:17:22;101138.94;;;28.01;62.20
56040;BME280;43937;41.366;2.072;2022-10-16T10:19:53;101132.69;;;27.83;62.68
56040;BME280;43937;41.366;2.072;2022-10-16T10:27:29;101143.03;;;27.78;66.16
56040;BME280;43937;41.366;2.072;2022-10-16T10:30:13;101141.72;;;28.01;64.29
56040;BME280;43937;41.366;2.072;2022-10-16T10:32:50;101147.53;;;27.89;64.23
56040;BME280;43937;41.366;2.072;2022-10-16T10:38:20;101147.44;;;28.26;63.88
56040;BME280;43937;41.366;2.072;2022-10-16T10:41:22;101147.84;;;27.88;65.32
56040;BME280;43937;41.366;2.072;2022-10-16T10:46:35;101146.91;;;27.34;67.06
56040;BME280;43937;41.366;2.072;2022-10-16T11:00:27;101136.66;;;27.88;66.29
56040;BME280;43937;41.366;2.072;2022-10-16T11:07:31;101127.75;;;28.01;65.83
56040;BME280;43937;41.366;2.072;2022-10-16T11:10:13;101130.56;;;27.58;67.09
56040;BME280;43937;41.366;2.072;2022-10-16T11:12:44;101120.84;;;27.66;67.46
56040;BME280;43937;41.366;2.072;2022-10-16T11:15:17;101124.56;;;28.55;65.74
56040;BME280;43937;41.366;2.072;2022-10-16T11:20:23;101126.53;;;28.54;64.25
56040;BME280;43937;41.366;2.072;2022-10-16T11:23:00;101123.47;;;28.87;62.89
56040;BME280;43937;41.366;2.072;2022-10-16T11:25:32;101119.41;;;28.11;65.41
56040;BME280;43937;41.366;2.072;2022-10-16T11:32:21;101118.09;;;27.76;66.86
56040;BME280;43937;41.366;2.072;2022-10-16T11:34:51;101107.53;;;27.36;68.58
56040;BME280;43937;41.366;2.072;2022-10-16T11:37:24;101105.22;;;27.28;69.40
56040;BME280;43937;41.366;2.072;2022-10-16T11:39:50;101120.34;;;27.32;68.69
56040;BME280;43937;41.366;2.072;2022-10-16T11:42:32;101119.53;;;26.67;71.85
56040;BME280;43937;41.366;2.072;2022-10-16T11:45:13;101109.25;;;26.45;73.02
56040;BME280;43937;41.366;2.072;2022-10-16T11:47:52;101103.50;;;26.89;71.30
56040;BME280;43937;41.366;2.072;2022-10-16T11:50:25;101105.47;;;26.89;72.28
56040;BME280;43937;41.366;2.072;2022-10-16T11:55:45;101097.41;;;26.38;75.21
56040;BME280;43937;41.366;2.072;2022-10-16T11:58:31;101099.94;;;26.62;73.86
56040;BME280;43937;41.366;2.072;2022-10-16T12:01:19;101088.53;;;26.41;74.46
56040;BME280;43937;41.366;2.072;2022-10-16T12:06:40;101083.66;;;26.54;74.75
56040;BME280;43937;41.366;2.072;2022-10-16T12:09:17;101080.75;;;26.70;74.10
56040;BME280;43937;41.366;2.072;2022-10-16T12:11:45;101087.91;;;26.61;74.20
56040;BME280;43937;41.366;2.072;2022-10-16T12:16:58;101093.97;;;27.60;70.95
56040;BME280;43937;41.366;2.072;2022-10-16T12:22:54;101093.06;;;28.07;67.19
56040;BME280;43937;41.366;2.072;2022-10-16T12:25:35;101088.63;;;28.21;66.64
56040;BME280;43937;41.366;2.072;2022-10-16T12:28:28;101087.94;;;27.83;68.15
56040;BME280;43937;41.366;2.072;2022-10-16T12:31:04;101088.38;;;27.60;69.12
56040;BME280;43937;41.366;2.072;2022-10-16T12:33:33;101069.88;;;27.54;68.86
56040;BME280;43937;41.366;2.072;2022-10-16T12:36:01;101092.59;;;27.20;71.58
56040;BME280;43937;41.366;2.072;2022-10-16T12:40:59;101093.31;;;27.43;69.62
56040;BME280;43937;41.366;2.072;2022-10-16T12:43:28;101096.00;;;27.27;70.13
56040;BME280;43937;41.366;2.072;2022-10-16T12:48:35;101094.63;;;27.30;70.63
56040;BME280;43937;41.366;2.072;2022-10-16T12:54:22;101102.19;;;26.97;70.16
56040;BME280;43937;41.366;2.072;2022-10-16T13:08:00;101103.66;;;27.95;67.95
56040;BME280;43937;41.366;2.072;2022-10-16T13:10:39;101092.88;;;27.71;67.69
56040;BME280;43937;41.366;2.072;2022-10-16T13:16:13;101104.31;;;27.17;69.44
56040;BME280;43937;41.366;2.072;2022-10-16T13:21:33;101101.97;;;27.04;70.16
56040;BME280;43937;41.366;2.072;2022-10-16T13:28:09;101087.16;;;26.71;70.79
56040;BME280;43937;41.366;2.072;2022-10-16T13:30:41;101099.50;;;26.75;70.49
56040;BME280;43937;41.366;2.072;2022-10-16T13:33:17;101094.53;;;26.82;71.38
56040;BME280;43937;41.366;2.072;2022-10-16T13:35:55;101090.59;;;26.78;69.85
56040;BME280;43937;41.366;2.072;2022-10-16T13:40:24;101091.16;;;26.80;70.12
56040;BME280;43937;41.366;2.072;2022-10-16T13:42:50;101066.00;;;26.80;68.61
56040;BME280;43937;41.366;2.072;2022-10-16T13:45:22;101085.38;;;26.92;70.18
56040;BME280;43937;41.366;2.072;2022-10-16T13:47:48;101094.03;;;26.90;71.70
56040;BME280;43937;41.366;2.072;2022-10-16T13:50:18;101087.81;;;26.78;71.30
56040;BME280;43937;41.366;2.072;2022-10-16T13:52:44;101076.00;;;26.71;70.95
56040;BME280;43937;41.366;2.072;2022-10-16T13:55:11;101077.69;;;26.45;72.21
56040;BME280;43937;41.366;2.072;2022-10-16T13:57:37;101091.31;;;26.41;73.33
56040;BME280;43937;41.366;2.072;2022-10-16T14:00:03;101081.38;;;26.50;71.38
56040;BME280;43937;41.366;2.072;2022-10-16T14:02:37;101067.19;;;26.52;72.10
56040;BME280;43937;41.366;2.072;2022-10-16T14:05:08;101065.34;;;26.41;72.27
56040;BME280;43937;41.366;2.072;2022-10-16T14:07:36;101078.69;;;26.34;72.96
56040;BME280;43937;41.366;2.072;2022-10-16T14:10:31;101079.91;;;26.16;69.53
56040;BME280;43937;41.366;2.072;2022-10-16T14:13:03;101088.19;;;26.11;69.45
56040;BME280;43937;41.366;2.072;2022-10-16T14:15:31;101053.66;;;26.17;66.97
56040;BME280;43937;41.366;2.072;2022-10-16T14:17:57;101075.44;;;26.42;64.49
56040;BME280;43937;41.366;2.072;2022-10-16T14:20:26;101087.44;;;26.15;66.17
56040;BME280;43937;41.366;2.072;2022-10-16T14:23:20;101087.44;;;26.15;67.03
56040;BME280;43937;41.366;2.072;2022-10-16T14:25:46;101080.94;;;26.10;67.13
56040;BME280;43937;41.366;2.072;2022-10-16T14:28:22;101085.91;;;26.02;67.06
56040;BME280;43937;41.366;2.072;2022-10-16T14:30:58;101075.81;;;26.23;66.60
56040;BME280;43937;41.366;2.072;2022-10-16T14:33:32;101077.88;;;26.38;66.45
56040;BME280;43937;41.366;2.072;2022-10-16T14:38:37;101078.22;;;26.42;65.82
56040;BME280;43937;41.366;2.072;2022-10-16T14:41:04;101064.66;;;26.23;66.38
56040;BME280;43937;41.366;2.072;2022-10-16T14:43:37;101074.09;;;26.22;65.98
56040;BME280;43937;41.366;2.072;2022-10-16T14:46:07;101077.22;;;26.26;65.16
56040;BME280;43937;41.366;2.072;2022-10-16T14:48:34;101082.75;;;26.21;65.52
56040;BME280;43937;41.366;2.072;2022-10-16T14:51:00;101093.47;;;26.34;64.19
56040;BME280;43937;41.366;2.072;2022-10-16T14:53:25;101082.47;;;26.22;64.02
56040;BME280;43937;41.366;2.072;2022-10-16T14:55:50;101082.75;;;26.21;68.87
56040;BME280;43937;41.366;2.072;2022-10-16T14:58:23;101074.91;;;25.96;65.60
56040;BME280;43937;41.366;2.072;2022-10-16T15:00:49;101085.78;;;26.19;63.59
56040;BME280;43937;41.366;2.072;2022-10-16T15:03:15;101091.38;;;26.19;67.83
56040;BME280;43937;41.366;2.072;2022-10-16T15:05:41;101083.75;;;26.10;67.31
56040;BME280;43937;41.366;2.072;2022-10-16T15:08:06;101092.25;;;25.98;69.08
56040;BME280;43937;41.366;2.072;2022-10-16T15:10:38;101089.56;;;26.08;69.13
56040;BME280;43937;41.366;2.072;2022-10-16T15:15:00;101097.44;;;25.89;69.02
56040;BME280;43937;41.366;2.072;2022-10-16T15:17:25;101078.09;;;25.61;69.18
56040;BME280;43937;41.366;2.072;2022-10-16T15:19:51;101094.94;;;25.71;71.91
56040;BME280;43937;41.366;2.072;2022-10-16T15:22:16;101094.63;;;25.67;70.83